Terminal Aerodrome Forecast
Issued by NWS Green Bay, WI

Home | Current Version | Previous Version | Graphics & Text | Print | Product List | Glossary On
Versions: 1 2 3 4 5 6 7 8 9 10 11 12 13 14 15 16 17 18 19 20 21 22 23 24 25 26 27 28
667
FTUS43 KGRB 191132
TAFGRB
TAF
KGRB 191132Z 1912/2012 VRB03KT P6SM SCT200
     FM191700 10004KT P6SM SCT200
     FM200800 10005KT 4SM BR SCT150=

USA.gov is the U.S. government's official web portal to all federal, state and local government web resources and services.